sensor_id;sensor_type;location;lat;lon;timestamp;P1;durP1;ratioP1;P2;durP2;ratioP2
62543;SDS011;48597;49.030;1.822;2024-03-08T00:02:24;3.50;;;3.20;;
62543;SDS011;48597;49.030;1.822;2024-03-08T00:04:49;2.88;;;2.58;;
62543;SDS011;48597;49.030;1.822;2024-03-08T00:07:15;3.00;;;2.70;;
62543;SDS011;48597;49.030;1.822;2024-03-08T00:09:40;3.47;;;2.83;;
62543;SDS011;48597;49.030;1.822;2024-03-08T00:12:06;3.13;;;2.72;;
62543;SDS011;48597;49.030;1.822;2024-03-08T00:14:31;3.85;;;2.90;;
62543;SDS011;48597;49.030;1.822;2024-03-08T00:16:57;2.92;;;2.63;;
62543;SDS011;48597;49.030;1.822;2024-03-08T00:19:22;2.80;;;2.60;;
62543;SDS011;48597;49.030;1.822;2024-03-08T00:21:47;2.97;;;2.70;;
62543;SDS011;48597;49.030;1.822;2024-03-08T00:24:13;3.28;;;2.97;;
62543;SDS011;48597;49.030;1.822;2024-03-08T00:26:38;2.80;;;2.60;;
62543;SDS011;48597;49.030;1.822;2024-03-08T00:29:03;3.05;;;2.78;;
62543;SDS011;48597;49.030;1.822;2024-03-08T00:31:29;2.97;;;2.70;;
62543;SDS011;48597;49.030;1.822;2024-03-08T00:33:55;3.05;;;2.75;;
62543;SDS011;48597;49.030;1.822;2024-03-08T00:36:22;2.72;;;2.53;;
62543;SDS011;48597;49.030;1.822;2024-03-08T00:38:47;3.28;;;2.97;;
62543;SDS011;48597;49.030;1.822;2024-03-08T00:41:13;3.28;;;2.92;;
62543;SDS011;48597;49.030;1.822;2024-03-08T00:43:38;4.30;;;2.90;;
62543;SDS011;48597;49.030;1.822;2024-03-08T00:46:04;2.80;;;2.60;;
62543;SDS011;48597;49.030;1.822;2024-03-08T00:48:29;2.60;;;2.40;;
62543;SDS011;48597;49.030;1.822;2024-03-08T00:50:55;2.92;;;2.63;;
62543;SDS011;48597;49.030;1.822;2024-03-08T00:53:21;2.80;;;2.50;;
62543;SDS011;48597;49.030;1.822;2024-03-08T00:55:46;2.78;;;2.47;;
62543;SDS011;48597;49.030;1.822;2024-03-08T00:58:12;3.00;;;2.70;;
62543;SDS011;48597;49.030;1.822;2024-03-08T01:00:38;2.95;;;2.65;;
62543;SDS011;48597;49.030;1.822;2024-03-08T01:03:04;2.67;;;2.47;;
62543;SDS011;48597;49.030;1.822;2024-03-08T01:05:30;3.33;;;3.00;;
62543;SDS011;48597;49.030;1.822;2024-03-08T01:07:55;2.70;;;2.50;;
62543;SDS011;48597;49.030;1.822;2024-03-08T01:10:21;2.78;;;2.58;;
62543;SDS011;48597;49.030;1.822;2024-03-08T01:12:46;3.47;;;2.85;;
62543;SDS011;48597;49.030;1.822;2024-03-08T01:15:12;2.70;;;2.50;;
62543;SDS011;48597;49.030;1.822;2024-03-08T01:17:37;3.25;;;2.90;;
62543;SDS011;48597;49.030;1.822;2024-03-08T01:20:03;3.33;;;2.72;;
62543;SDS011;48597;49.030;1.822;2024-03-08T01:22:30;3.28;;;2.60;;
62543;SDS011;48597;49.030;1.822;2024-03-08T01:24:56;3.42;;;2.92;;
62543;SDS011;48597;49.030;1.822;2024-03-08T01:27:21;3.35;;;3.05;;
62543;SDS011;48597;49.030;1.822;2024-03-08T01:29:47;3.10;;;2.80;;
62543;SDS011;48597;49.030;1.822;2024-03-08T01:32:13;3.47;;;2.80;;
62543;SDS011;48597;49.030;1.822;2024-03-08T01:34:38;3.15;;;2.85;;
62543;SDS011;48597;49.030;1.822;2024-03-08T01:37:04;3.20;;;2.80;;
62543;SDS011;48597;49.030;1.822;2024-03-08T01:39:29;2.80;;;2.58;;
62543;SDS011;48597;49.030;1.822;2024-03-08T01:41:55;3.10;;;2.80;;
62543;SDS011;48597;49.030;1.822;2024-03-08T01:44:20;2.90;;;2.60;;
62543;SDS011;48597;49.030;1.822;2024-03-08T01:46:46;3.17;;;2.88;;
62543;SDS011;48597;49.030;1.822;2024-03-08T01:49:12;2.80;;;2.60;;
62543;SDS011;48597;49.030;1.822;2024-03-08T01:51:39;3.00;;;2.70;;
62543;SDS011;48597;49.030;1.822;2024-03-08T01:54:06;2.85;;;2.60;;
62543;SDS011;48597;49.030;1.822;2024-03-08T01:56:35;2.92;;;2.63;;
62543;SDS011;48597;49.030;1.822;2024-03-08T01:59:03;2.83;;;2.53;;
62543;SDS011;48597;49.030;1.822;2024-03-08T02:01:29;3.15;;;2.83;;
62543;SDS011;48597;49.030;1.822;2024-03-08T02:03:55;3.00;;;2.80;;
62543;SDS011;48597;49.030;1.822;2024-03-08T02:06:20;3.15;;;2.80;;
62543;SDS011;48597;49.030;1.822;2024-03-08T02:08:46;2.88;;;2.58;;
62543;SDS011;48597;49.030;1.822;2024-03-08T02:11:11;3.92;;;2.67;;
62543;SDS011;48597;49.030;1.822;2024-03-08T02:13:37;3.10;;;2.80;;
62543;SDS011;48597;49.030;1.822;2024-03-08T02:16:03;3.10;;;2.80;;
62543;SDS011;48597;49.030;1.822;2024-03-08T02:18:29;2.78;;;2.58;;
62543;SDS011;48597;49.030;1.822;2024-03-08T02:20:58;2.88;;;2.55;;
62543;SDS011;48597;49.030;1.822;2024-03-08T02:23:24;3.83;;;2.80;;
62543;SDS011;48597;49.030;1.822;2024-03-08T02:25:50;3.17;;;2.80;;
62543;SDS011;48597;49.030;1.822;2024-03-08T02:28:17;3.17;;;2.88;;
62543;SDS011;48597;49.030;1.822;2024-03-08T02:30:48;2.83;;;2.63;;
62543;SDS011;48597;49.030;1.822;2024-03-08T02:33:16;2.85;;;2.58;;
62543;SDS011;48597;49.030;1.822;2024-03-08T02:35:45;2.85;;;2.50;;
62543;SDS011;48597;49.030;1.822;2024-03-08T02:38:14;3.25;;;2.95;;
62543;SDS011;48597;49.030;1.822;2024-03-08T02:44:03;3.15;;;2.85;;
62543;SDS011;48597;49.030;1.822;2024-03-08T02:46:30;2.80;;;2.60;;
62543;SDS011;48597;49.030;1.822;2024-03-08T02:48:56;2.90;;;2.60;;
62543;SDS011;48597;49.030;1.822;2024-03-08T02:51:21;2.97;;;2.75;;
62543;SDS011;48597;49.030;1.822;2024-03-08T02:53:46;3.25;;;2.85;;
62543;SDS011;48597;49.030;1.822;2024-03-08T02:56:13;3.38;;;3.03;;
62543;SDS011;48597;49.030;1.822;2024-03-08T02:58:41;3.20;;;2.88;;
62543;SDS011;48597;49.030;1.822;2024-03-08T03:01:07;3.10;;;2.80;;
62543;SDS011;48597;49.030;1.822;2024-03-08T03:03:33;2.88;;;2.63;;
62543;SDS011;48597;49.030;1.822;2024-03-08T03:05:58;3.30;;;2.88;;
62543;SDS011;48597;49.030;1.822;2024-03-08T03:08:23;3.33;;;3.03;;
62543;SDS011;48597;49.030;1.822;2024-03-08T03:10:49;3.63;;;3.00;;
62543;SDS011;48597;49.030;1.822;2024-03-08T03:13:14;3.40;;;2.88;;
62543;SDS011;48597;49.030;1.822;2024-03-08T03:15:40;3.20;;;2.90;;
62543;SDS011;48597;49.030;1.822;2024-03-08T03:18:08;3.30;;;3.00;;
62543;SDS011;48597;49.030;1.822;2024-03-08T03:20:33;4.00;;;3.03;;
62543;SDS011;48597;49.030;1.822;2024-03-08T03:23:05;3.50;;;2.85;;
62543;SDS011;48597;49.030;1.822;2024-03-08T03:25:33;3.30;;;3.00;;
62543;SDS011;48597;49.030;1.822;2024-03-08T03:28:00;3.38;;;3.08;;
62543;SDS011;48597;49.030;1.822;2024-03-08T03:30:26;3.53;;;2.92;;
62543;SDS011;48597;49.030;1.822;2024-03-08T03:32:51;3.28;;;2.97;;
62543;SDS011;48597;49.030;1.822;2024-03-08T03:35:18;3.17;;;2.88;;
62543;SDS011;48597;49.030;1.822;2024-03-08T03:37:45;2.90;;;2.70;;
62543;SDS011;48597;49.030;1.822;2024-03-08T03:40:26;3.28;;;2.90;;
62543;SDS011;48597;49.030;1.822;2024-03-08T03:42:52;4.00;;;3.35;;
62543;SDS011;48597;49.030;1.822;2024-03-08T03:45:17;3.90;;;3.30;;
62543;SDS011;48597;49.030;1.822;2024-03-08T03:47:45;3.45;;;3.08;;
62543;SDS011;48597;49.030;1.822;2024-03-08T03:50:10;4.15;;;3.15;;
62543;SDS011;48597;49.030;1.822;2024-03-08T03:52:36;3.53;;;2.95;;
62543;SDS011;48597;49.030;1.822;2024-03-08T03:55:01;3.75;;;3.20;;
62543;SDS011;48597;49.030;1.822;2024-03-08T03:57:29;3.35;;;2.90;;
62543;SDS011;48597;49.030;1.822;2024-03-08T03:59:55;3.33;;;3.03;;
62543;SDS011;48597;49.030;1.822;2024-03-08T04:02:20;3.65;;;2.83;;
62543;SDS011;48597;49.030;1.822;2024-03-08T04:04:46;3.20;;;2.90;;
62543;SDS011;48597;49.030;1.822;2024-03-08T04:07:12;3.58;;;2.92;;
62543;SDS011;48597;49.030;1.822;2024-03-08T04:09:38;3.22;;;2.85;;
62543;SDS011;48597;49.030;1.822;2024-03-08T04:12:03;3.00;;;2.70;;
62543;SDS011;48597;49.030;1.822;2024-03-08T04:14:29;3.78;;;3.08;;
62543;SDS011;48597;49.030;1.822;2024-03-08T04:16:55;3.15;;;2.85;;
62543;SDS011;48597;49.030;1.822;2024-03-08T04:19:20;2.78;;;2.50;;
62543;SDS011;48597;49.030;1.822;2024-03-08T04:21:45;3.15;;;2.85;;
62543;SDS011;48597;49.030;1.822;2024-03-08T04:24:12;2.97;;;2.63;;
62543;SDS011;48597;49.030;1.822;2024-03-08T04:26:37;2.83;;;2.63;;
62543;SDS011;48597;49.030;1.822;2024-03-08T04:29:03;3.10;;;2.80;;
62543;SDS011;48597;49.030;1.822;2024-03-08T04:31:28;2.85;;;2.55;;
62543;SDS011;48597;49.030;1.822;2024-03-08T04:33:56;2.92;;;2.63;;
62543;SDS011;48597;49.030;1.822;2024-03-08T04:36:21;3.20;;;2.90;;
62543;SDS011;48597;49.030;1.822;2024-03-08T04:38:47;2.83;;;2.53;;
62543;SDS011;48597;49.030;1.822;2024-03-08T04:41:12;3.00;;;2.70;;
62543;SDS011;48597;49.030;1.822;2024-03-08T04:43:37;3.13;;;2.60;;
62543;SDS011;48597;49.030;1.822;2024-03-08T04:46:04;3.10;;;2.78;;
62543;SDS011;48597;49.030;1.822;2024-03-08T04:48:31;3.10;;;2.80;;
62543;SDS011;48597;49.030;1.822;2024-03-08T04:50:57;3.00;;;2.70;;
62543;SDS011;48597;49.030;1.822;2024-03-08T04:53:22;2.80;;;2.38;;
62543;SDS011;48597;49.030;1.822;2024-03-08T04:55:49;2.75;;;2.55;;
62543;SDS011;48597;49.030;1.822;2024-03-08T04:58:14;3.00;;;2.30;;
62543;SDS011;48597;49.030;1.822;2024-03-08T05:00:40;2.78;;;2.47;;
62543;SDS011;48597;49.030;1.822;2024-03-08T05:03:05;3.08;;;2.80;;
62543;SDS011;48597;49.030;1.822;2024-03-08T05:05:31;3.45;;;2.60;;
62543;SDS011;48597;49.030;1.822;2024-03-08T05:07:58;2.95;;;2.65;;
62543;SDS011;48597;49.030;1.822;2024-03-08T05:10:24;2.97;;;2.67;;
62543;SDS011;48597;49.030;1.822;2024-03-08T05:12:49;2.90;;;2.60;;
62543;SDS011;48597;49.030;1.822;2024-03-08T05:15:15;3.00;;;2.70;;
62543;SDS011;48597;49.030;1.822;2024-03-08T05:17:41;3.03;;;2.72;;
62543;SDS011;48597;49.030;1.822;2024-03-08T05:20:07;3.25;;;2.95;;
62543;SDS011;48597;49.030;1.822;2024-03-08T05:22:37;2.53;;;2.33;;
62543;SDS011;48597;49.030;1.822;2024-03-08T05:25:02;2.85;;;2.53;;
62543;SDS011;48597;49.030;1.822;2024-03-08T05:27:28;3.22;;;2.85;;
62543;SDS011;48597;49.030;1.822;2024-03-08T05:29:53;2.80;;;2.60;;
62543;SDS011;48597;49.030;1.822;2024-03-08T05:32:19;3.10;;;2.80;;
62543;SDS011;48597;49.030;1.822;2024-03-08T05:34:44;3.05;;;2.75;;
62543;SDS011;48597;49.030;1.822;2024-03-08T05:37:09;3.05;;;2.75;;
62543;SDS011;48597;49.030;1.822;2024-03-08T05:39:36;3.25;;;2.90;;
62543;SDS011;48597;49.030;1.822;2024-03-08T05:42:01;3.10;;;2.80;;
62543;SDS011;48597;49.030;1.822;2024-03-08T05:44:27;3.08;;;2.78;;
62543;SDS011;48597;49.030;1.822;2024-03-08T05:46:53;2.92;;;2.63;;
62543;SDS011;48597;49.030;1.822;2024-03-08T05:49:19;3.10;;;2.55;;
62543;SDS011;48597;49.030;1.822;2024-03-08T05:51:44;3.50;;;2.90;;
62543;SDS011;48597;49.030;1.822;2024-03-08T05:54:10;3.10;;;2.80;;
62543;SDS011;48597;49.030;1.822;2024-03-08T05:56:37;2.67;;;2.47;;
62543;SDS011;48597;49.030;1.822;2024-03-08T05:59:03;3.00;;;2.70;;
62543;SDS011;48597;49.030;1.822;2024-03-08T06:01:29;3.13;;;2.75;;
62543;SDS011;48597;49.030;1.822;2024-03-08T06:03:55;3.33;;;2.90;;
62543;SDS011;48597;49.030;1.822;2024-03-08T06:06:22;3.33;;;2.70;;
62543;SDS011;48597;49.030;1.822;2024-03-08T06:08:48;2.85;;;2.55;;
62543;SDS011;48597;49.030;1.822;2024-03-08T06:11:17;2.80;;;2.50;;
62543;SDS011;48597;49.030;1.822;2024-03-08T06:13:44;3.25;;;2.67;;
62543;SDS011;48597;49.030;1.822;2024-03-08T06:16:10;2.95;;;2.50;;
62543;SDS011;48597;49.030;1.822;2024-03-08T06:18:35;3.38;;;2.80;;
62543;SDS011;48597;49.030;1.822;2024-03-08T06:21:11;3.15;;;2.72;;
62543;SDS011;48597;49.030;1.822;2024-03-08T06:23:37;3.30;;;3.00;;
62543;SDS011;48597;49.030;1.822;2024-03-08T06:26:12;3.15;;;2.85;;
62543;SDS011;48597;49.030;1.822;2024-03-08T06:28:37;3.08;;;2.78;;
62543;SDS011;48597;49.030;1.822;2024-03-08T06:31:03;2.95;;;2.65;;
62543;SDS011;48597;49.030;1.822;2024-03-08T06:33:28;2.83;;;2.50;;
62543;SDS011;48597;49.030;1.822;2024-03-08T06:35:54;3.13;;;2.80;;
62543;SDS011;48597;49.030;1.822;2024-03-08T06:38:22;3.88;;;3.08;;
62543;SDS011;48597;49.030;1.822;2024-03-08T06:40:48;2.78;;;2.50;;
62543;SDS011;48597;49.030;1.822;2024-03-08T06:43:14;3.58;;;2.72;;
62543;SDS011;48597;49.030;1.822;2024-03-08T06:45:41;3.30;;;3.00;;
62543;SDS011;48597;49.030;1.822;2024-03-08T06:48:13;3.40;;;3.10;;
62543;SDS011;48597;49.030;1.822;2024-03-08T06:50:42;3.58;;;3.00;;
62543;SDS011;48597;49.030;1.822;2024-03-08T06:53:08;3.85;;;3.20;;
62543;SDS011;48597;49.030;1.822;2024-03-08T06:55:34;3.30;;;3.00;;
62543;SDS011;48597;49.030;1.822;2024-03-08T06:58:00;3.58;;;3.00;;
62543;SDS011;48597;49.030;1.822;2024-03-08T07:00:25;3.97;;;3.20;;
62543;SDS011;48597;49.030;1.822;2024-03-08T07:02:53;3.13;;;2.75;;
62543;SDS011;48597;49.030;1.822;2024-03-08T07:05:19;3.22;;;2.92;;
62543;SDS011;48597;49.030;1.822;2024-03-08T07:07:45;3.70;;;2.88;;
62543;SDS011;48597;49.030;1.822;2024-03-08T07:10:13;3.05;;;2.75;;
62543;SDS011;48597;49.030;1.822;2024-03-08T07:12:40;3.47;;;3.03;;
62543;SDS011;48597;49.030;1.822;2024-03-08T07:15:06;3.13;;;2.80;;
62543;SDS011;48597;49.030;1.822;2024-03-08T07:17:32;3.72;;;3.30;;
62543;SDS011;48597;49.030;1.822;2024-03-08T07:20:00;3.25;;;2.95;;
62543;SDS011;48597;49.030;1.822;2024-03-08T07:22:31;3.42;;;3.13;;
62543;SDS011;48597;49.030;1.822;2024-03-08T07:24:56;4.10;;;3.25;;
62543;SDS011;48597;49.030;1.822;2024-03-08T07:27:41;3.78;;;3.30;;
62543;SDS011;48597;49.030;1.822;2024-03-08T07:30:07;4.95;;;3.40;;
62543;SDS011;48597;49.030;1.822;2024-03-08T07:32:35;4.05;;;3.25;;
62543;SDS011;48597;49.030;1.822;2024-03-08T07:35:01;4.40;;;3.60;;
62543;SDS011;48597;49.030;1.822;2024-03-08T07:37:29;4.22;;;3.58;;
62543;SDS011;48597;49.030;1.822;2024-03-08T07:39:56;4.50;;;3.72;;
62543;SDS011;48597;49.030;1.822;2024-03-08T07:42:23;4.32;;;3.53;;
62543;SDS011;48597;49.030;1.822;2024-03-08T07:44:48;5.18;;;3.72;;
62543;SDS011;48597;49.030;1.822;2024-03-08T07:47:15;6.53;;;4.97;;
62543;SDS011;48597;49.030;1.822;2024-03-08T07:49:42;7.10;;;5.32;;
62543;SDS011;48597;49.030;1.822;2024-03-08T07:52:09;9.55;;;5.10;;
62543;SDS011;48597;49.030;1.822;2024-03-08T07:54:34;7.43;;;4.60;;
62543;SDS011;48597;49.030;1.822;2024-03-08T07:57:00;5.55;;;4.40;;
62543;SDS011;48597;49.030;1.822;2024-03-08T07:59:27;6.20;;;4.47;;
62543;SDS011;48597;49.030;1.822;2024-03-08T08:01:53;5.07;;;4.10;;
62543;SDS011;48597;49.030;1.822;2024-03-08T08:04:18;5.35;;;4.45;;
62543;SDS011;48597;49.030;1.822;2024-03-08T08:06:49;4.95;;;3.70;;
62543;SDS011;48597;49.030;1.822;2024-03-08T08:09:16;4.78;;;3.70;;
62543;SDS011;48597;49.030;1.822;2024-03-08T08:11:47;4.88;;;4.07;;
62543;SDS011;48597;49.030;1.822;2024-03-08T08:14:12;4.45;;;3.83;;
62543;SDS011;48597;49.030;1.822;2024-03-08T08:16:38;4.53;;;3.65;;
62543;SDS011;48597;49.030;1.822;2024-03-08T08:19:06;5.85;;;4.10;;
62543;SDS011;48597;49.030;1.822;2024-03-08T08:21:35;3.88;;;3.38;;
62543;SDS011;48597;49.030;1.822;2024-03-08T08:24:03;4.75;;;3.30;;
62543;SDS011;48597;49.030;1.822;2024-03-08T08:26:29;4.90;;;3.33;;
62543;SDS011;48597;49.030;1.822;2024-03-08T08:28:55;3.85;;;3.45;;
62543;SDS011;48597;49.030;1.822;2024-03-08T08:31:20;5.80;;;3.60;;
62543;SDS011;48597;49.030;1.822;2024-03-08T08:33:45;3.97;;;3.35;;
62543;SDS011;48597;49.030;1.822;2024-03-08T08:36:13;4.95;;;3.97;;
62543;SDS011;48597;49.030;1.822;2024-03-08T08:38:38;4.50;;;3.40;;
62543;SDS011;48597;49.030;1.822;2024-03-08T08:41:04;3.75;;;3.20;;
62543;SDS011;48597;49.030;1.822;2024-03-08T08:43:30;4.72;;;3.83;;
62543;SDS011;48597;49.030;1.822;2024-03-08T08:45:55;4.65;;;3.75;;
62543;SDS011;48597;49.030;1.822;2024-03-08T08:48:21;4.10;;;3.70;;
62543;SDS011;48597;49.030;1.822;2024-03-08T08:50:46;5.63;;;4.15;;
62543;SDS011;48597;49.030;1.822;2024-03-08T08:53:12;4.28;;;3.50;;
62543;SDS011;48597;49.030;1.822;2024-03-08T08:55:40;4.20;;;3.30;;
62543;SDS011;48597;49.030;1.822;2024-03-08T08:58:05;4.13;;;3.67;;
62543;SDS011;48597;49.030;1.822;2024-03-08T09:00:32;3.83;;;3.25;;
62543;SDS011;48597;49.030;1.822;2024-03-08T09:02:59;4.53;;;3.90;;
62543;SDS011;48597;49.030;1.822;2024-03-08T09:05:25;4.82;;;3.60;;
62543;SDS011;48597;49.030;1.822;2024-03-08T09:07:51;4.75;;;3.83;;
62543;SDS011;48597;49.030;1.822;2024-03-08T09:10:18;4.40;;;3.83;;
62543;SDS011;48597;49.030;1.822;2024-03-08T09:12:43;3.83;;;3.33;;
62543;SDS011;48597;49.030;1.822;2024-03-08T09:15:09;4.57;;;3.70;;
62543;SDS011;48597;49.030;1.822;2024-03-08T09:17:36;5.43;;;3.90;;
62543;SDS011;48597;49.030;1.822;2024-03-08T09:20:05;5.25;;;3.88;;
62543;SDS011;48597;49.030;1.822;2024-03-08T09:22:31;4.40;;;3.58;;
62543;SDS011;48597;49.030;1.822;2024-03-08T09:24:57;3.88;;;3.30;;
62543;SDS011;48597;49.030;1.822;2024-03-08T09:27:22;4.60;;;3.38;;
62543;SDS011;48597;49.030;1.822;2024-03-08T09:29:48;5.20;;;3.70;;
62543;SDS011;48597;49.030;1.822;2024-03-08T09:32:14;5.00;;;3.63;;
62543;SDS011;48597;49.030;1.822;2024-03-08T09:34:39;3.72;;;3.38;;
62543;SDS011;48597;49.030;1.822;2024-03-08T09:37:05;4.40;;;3.58;;
62543;SDS011;48597;49.030;1.822;2024-03-08T09:39:30;4.57;;;3.75;;
62543;SDS011;48597;49.030;1.822;2024-03-08T09:41:56;3.97;;;3.58;;
62543;SDS011;48597;49.030;1.822;2024-03-08T09:44:22;4.22;;;3.60;;
62543;SDS011;48597;49.030;1.822;2024-03-08T09:46:48;4.43;;;3.88;;
62543;SDS011;48597;49.030;1.822;2024-03-08T09:49:16;4.50;;;3.60;;
62543;SDS011;48597;49.030;1.822;2024-03-08T09:51:42;5.18;;;3.47;;
62543;SDS011;48597;49.030;1.822;2024-03-08T09:54:07;3.95;;;3.20;;
62543;SDS011;48597;49.030;1.822;2024-03-08T09:56:33;4.70;;;3.53;;
62543;SDS011;48597;49.030;1.822;2024-03-08T09:59:00;4.80;;;4.00;;
62543;SDS011;48597;49.030;1.822;2024-03-08T10:01:44;5.55;;;3.70;;
62543;SDS011;48597;49.030;1.822;2024-03-08T10:04:11;4.28;;;3.65;;
62543;SDS011;48597;49.030;1.822;2024-03-08T10:06:38;4.10;;;3.45;;
62543;SDS011;48597;49.030;1.822;2024-03-08T10:09:04;4.45;;;3.97;;
62543;SDS011;48597;49.030;1.822;2024-03-08T10:11:32;4.15;;;3.35;;
62543;SDS011;48597;49.030;1.822;2024-03-08T10:13:57;4.65;;;3.67;;
62543;SDS011;48597;49.030;1.822;2024-03-08T10:16:29;5.72;;;4.45;;
62543;SDS011;48597;49.030;1.822;2024-03-08T10:18:56;4.53;;;3.70;;
62543;SDS011;48597;49.030;1.822;2024-03-08T10:21:22;5.20;;;4.13;;
62543;SDS011;48597;49.030;1.822;2024-03-08T10:23:47;4.90;;;4.00;;
62543;SDS011;48597;49.030;1.822;2024-03-08T10:26:14;4.50;;;3.53;;
62543;SDS011;48597;49.030;1.822;2024-03-08T10:28:44;4.72;;;3.60;;
62543;SDS011;48597;49.030;1.822;2024-03-08T10:31:10;3.85;;;3.33;;
62543;SDS011;48597;49.030;1.822;2024-03-08T10:33:35;5.25;;;3.75;;
62543;SDS011;48597;49.030;1.822;2024-03-08T10:36:03;4.22;;;3.55;;
62543;SDS011;48597;49.030;1.822;2024-03-08T10:38:31;3.80;;;3.35;;
62543;SDS011;48597;49.030;1.822;2024-03-08T10:41:00;7.32;;;3.88;;
62543;SDS011;48597;49.030;1.822;2024-03-08T10:43:28;4.75;;;3.63;;
62543;SDS011;48597;49.030;1.822;2024-03-08T10:46:12;4.35;;;3.38;;
62543;SDS011;48597;49.030;1.822;2024-03-08T10:48:50;4.55;;;3.38;;
62543;SDS011;48597;49.030;1.822;2024-03-08T10:51:17;4.50;;;3.80;;
62543;SDS011;48597;49.030;1.822;2024-03-08T10:53:44;5.32;;;3.80;;
62543;SDS011;48597;49.030;1.822;2024-03-08T10:56:13;6.40;;;3.45;;
62543;SDS011;48597;49.030;1.822;2024-03-08T10:58:39;3.63;;;3.30;;
62543;SDS011;48597;49.030;1.822;2024-03-08T11:01:05;5.05;;;3.53;;
62543;SDS011;48597;49.030;1.822;2024-03-08T11:06:06;3.88;;;3.38;;
62543;SDS011;48597;49.030;1.822;2024-03-08T11:08:40;4.70;;;3.60;;
62543;SDS011;48597;49.030;1.822;2024-03-08T11:11:05;4.50;;;3.10;;
62543;SDS011;48597;49.030;1.822;2024-03-08T11:13:37;3.58;;;3.10;;
62543;SDS011;48597;49.030;1.822;2024-03-08T11:16:11;5.38;;;3.50;;
62543;SDS011;48597;49.030;1.822;2024-03-08T11:21:54;5.88;;;3.72;;
62543;SDS011;48597;49.030;1.822;2024-03-08T11:24:22;3.53;;;3.22;;
62543;SDS011;48597;49.030;1.822;2024-03-08T11:26:48;3.75;;;3.30;;
62543;SDS011;48597;49.030;1.822;2024-03-08T11:32:07;4.18;;;3.30;;
62543;SDS011;48597;49.030;1.822;2024-03-08T11:34:35;4.85;;;3.25;;
62543;SDS011;48597;49.030;1.822;2024-03-08T11:37:03;4.65;;;3.38;;
62543;SDS011;48597;49.030;1.822;2024-03-08T11:39:29;4.15;;;3.25;;
62543;SDS011;48597;49.030;1.822;2024-03-08T11:41:55;4.60;;;3.35;;
62543;SDS011;48597;49.030;1.822;2024-03-08T11:44:21;3.55;;;3.00;;
62543;SDS011;48597;49.030;1.822;2024-03-08T11:46:46;5.05;;;3.78;;
62543;SDS011;48597;49.030;1.822;2024-03-08T11:49:15;5.20;;;3.78;;
62543;SDS011;48597;49.030;1.822;2024-03-08T11:51:41;4.03;;;3.50;;
62543;SDS011;48597;49.030;1.822;2024-03-08T11:54:11;4.13;;;3.10;;
62543;SDS011;48597;49.030;1.822;2024-03-08T11:56:40;5.32;;;3.47;;
62543;SDS011;48597;49.030;1.822;2024-03-08T11:59:11;4.40;;;3.50;;
62543;SDS011;48597;49.030;1.822;2024-03-08T12:04:05;3.75;;;3.35;;
62543;SDS011;48597;49.030;1.822;2024-03-08T12:06:37;3.88;;;3.10;;
62543;SDS011;48597;49.030;1.822;2024-03-08T12:09:04;2.75;;;2.42;;
62543;SDS011;48597;49.030;1.822;2024-03-08T12:11:34;4.45;;;2.80;;
62543;SDS011;48597;49.030;1.822;2024-03-08T12:14:01;3.00;;;2.70;;
62543;SDS011;48597;49.030;1.822;2024-03-08T12:16:26;3.20;;;2.83;;
62543;SDS011;48597;49.030;1.822;2024-03-08T12:18:52;4.38;;;3.08;;
62543;SDS011;48597;49.030;1.822;2024-03-08T12:21:21;3.22;;;2.83;;
62543;SDS011;48597;49.030;1.822;2024-03-08T12:23:53;5.00;;;2.90;;
62543;SDS011;48597;49.030;1.822;2024-03-08T12:26:33;5.90;;;3.00;;
62543;SDS011;48597;49.030;1.822;2024-03-08T12:31:57;3.15;;;2.60;;
62543;SDS011;48597;49.030;1.822;2024-03-08T12:34:26;4.25;;;2.67;;
62543;SDS011;48597;49.030;1.822;2024-03-08T12:36:57;3.25;;;2.67;;
62543;SDS011;48597;49.030;1.822;2024-03-08T12:39:23;3.03;;;2.70;;
62543;SDS011;48597;49.030;1.822;2024-03-08T12:41:58;3.17;;;2.63;;
62543;SDS011;48597;49.030;1.822;2024-03-08T12:44:24;3.65;;;2.75;;
62543;SDS011;48597;49.030;1.822;2024-03-08T12:46:51;4.00;;;2.70;;
62543;SDS011;48597;49.030;1.822;2024-03-08T12:49:18;2.80;;;2.42;;
62543;SDS011;48597;49.030;1.822;2024-03-08T12:51:47;3.28;;;2.63;;
62543;SDS011;48597;49.030;1.822;2024-03-08T12:54:13;3.53;;;2.60;;
62543;SDS011;48597;49.030;1.822;2024-03-08T12:56:38;2.85;;;2.42;;
62543;SDS011;48597;49.030;1.822;2024-03-08T12:59:05;2.70;;;2.50;;
62543;SDS011;48597;49.030;1.822;2024-03-08T13:01:31;2.60;;;2.30;;
62543;SDS011;48597;49.030;1.822;2024-03-08T13:03:57;3.22;;;2.30;;
62543;SDS011;48597;49.030;1.822;2024-03-08T13:06:23;3.35;;;2.50;;
62543;SDS011;48597;49.030;1.822;2024-03-08T13:08:49;3.75;;;2.35;;
62543;SDS011;48597;49.030;1.822;2024-03-08T13:11:18;2.78;;;2.17;;
62543;SDS011;48597;49.030;1.822;2024-03-08T13:13:44;2.88;;;2.30;;
62543;SDS011;48597;49.030;1.822;2024-03-08T13:16:10;2.55;;;2.28;;
62543;SDS011;48597;49.030;1.822;2024-03-08T13:18:39;4.50;;;2.40;;
62543;SDS011;48597;49.030;1.822;2024-03-08T13:21:07;3.35;;;2.40;;
62543;SDS011;48597;49.030;1.822;2024-03-08T13:23:34;3.40;;;2.45;;
62543;SDS011;48597;49.030;1.822;2024-03-08T13:26:04;3.30;;;2.47;;
62543;SDS011;48597;49.030;1.822;2024-03-08T13:28:30;3.60;;;2.40;;
62543;SDS011;48597;49.030;1.822;2024-03-08T13:31:01;2.30;;;2.10;;
62543;SDS011;48597;49.030;1.822;2024-03-08T13:33:28;2.97;;;2.38;;
62543;SDS011;48597;49.030;1.822;2024-03-08T13:35:53;3.22;;;2.20;;
62543;SDS011;48597;49.030;1.822;2024-03-08T13:38:18;2.85;;;2.50;;
62543;SDS011;48597;49.030;1.822;2024-03-08T13:40:45;3.33;;;2.20;;
62543;SDS011;48597;49.030;1.822;2024-03-08T13:43:14;2.75;;;2.28;;
62543;SDS011;48597;49.030;1.822;2024-03-08T13:45:39;2.88;;;2.20;;
62543;SDS011;48597;49.030;1.822;2024-03-08T13:48:05;2.75;;;2.20;;
62543;SDS011;48597;49.030;1.822;2024-03-08T13:50:31;2.40;;;1.98;;
62543;SDS011;48597;49.030;1.822;2024-03-08T13:52:57;2.97;;;2.10;;
62543;SDS011;48597;49.030;1.822;2024-03-08T13:55:23;2.50;;;2.30;;
62543;SDS011;48597;49.030;1.822;2024-03-08T13:57:51;2.13;;;1.80;;
62543;SDS011;48597;49.030;1.822;2024-03-08T14:00:17;2.55;;;2.22;;
62543;SDS011;48597;49.030;1.822;2024-03-08T14:02:42;2.78;;;2.00;;
62543;SDS011;48597;49.030;1.822;2024-03-08T14:05:08;3.00;;;1.85;;
62543;SDS011;48597;49.030;1.822;2024-03-08T14:07:34;2.80;;;2.00;;
62543;SDS011;48597;49.030;1.822;2024-03-08T14:10:00;2.67;;;2.08;;
62543;SDS011;48597;49.030;1.822;2024-03-08T14:12:25;2.40;;;1.92;;
62543;SDS011;48597;49.030;1.822;2024-03-08T14:14:51;2.50;;;2.10;;
62543;SDS011;48597;49.030;1.822;2024-03-08T14:17:17;2.17;;;1.90;;
62543;SDS011;48597;49.030;1.822;2024-03-08T14:19:43;2.13;;;1.90;;
62543;SDS011;48597;49.030;1.822;2024-03-08T14:22:08;2.70;;;2.30;;
62543;SDS011;48597;49.030;1.822;2024-03-08T14:24:39;2.05;;;1.85;;
62543;SDS011;48597;49.030;1.822;2024-03-08T14:27:07;2.47;;;1.88;;
62543;SDS011;48597;49.030;1.822;2024-03-08T14:29:34;3.63;;;2.10;;
62543;SDS011;48597;49.030;1.822;2024-03-08T14:32:00;2.85;;;2.05;;
62543;SDS011;48597;49.030;1.822;2024-03-08T14:34:26;2.92;;;1.83;;
62543;SDS011;48597;49.030;1.822;2024-03-08T14:36:53;2.33;;;1.98;;
62543;SDS011;48597;49.030;1.822;2024-03-08T14:39:18;2.67;;;1.92;;
62543;SDS011;48597;49.030;1.822;2024-03-08T14:41:51;2.45;;;1.77;;
62543;SDS011;48597;49.030;1.822;2024-03-08T14:44:20;2.42;;;1.88;;
62543;SDS011;48597;49.030;1.822;2024-03-08T14:46:47;2.78;;;1.85;;
62543;SDS011;48597;49.030;1.822;2024-03-08T14:49:13;2.20;;;2.00;;
62543;SDS011;48597;49.030;1.822;2024-03-08T14:51:38;2.05;;;1.85;;
62543;SDS011;48597;49.030;1.822;2024-03-08T14:54:04;2.28;;;1.70;;
62543;SDS011;48597;49.030;1.822;2024-03-08T14:59:00;2.10;;;1.67;;
62543;SDS011;48597;49.030;1.822;2024-03-08T15:01:26;2.25;;;1.50;;
62543;SDS011;48597;49.030;1.822;2024-03-08T15:03:54;2.05;;;1.77;;
62543;SDS011;48597;49.030;1.822;2024-03-08T15:06:20;3.13;;;1.85;;